createdAt,value
2018-09-08T00:02:27.562Z,101033.13
2018-09-08T00:04:57.474Z,101034.27
2018-09-08T00:07:32.197Z,101024.19
2018-09-08T00:10:01.736Z,101029.20
2018-09-08T00:12:31.129Z,101019.63
2018-09-08T00:15:05.769Z,101023.27
2018-09-08T00:17:40.131Z,101024.13
2018-09-08T00:20:14.989Z,101019.99
2018-09-08T00:22:49.602Z,101023.55
2018-09-08T00:25:24.588Z,101029.08
2018-09-08T00:28:00.730Z,101038.58
2018-09-08T00:30:30.270Z,101027.95
2018-09-08T00:32:59.677Z,101028.69
2018-09-08T00:35:29.340Z,101030.00
2018-09-08T00:37:59.098Z,101020.65
2018-09-08T00:40:28.523Z,101024.53
2018-09-08T00:42:58.023Z,101025.73
2018-09-08T00:45:27.698Z,101037.18
2018-09-08T00:47:57.407Z,101034.02
2018-09-08T00:50:27.210Z,101033.97
2018-09-08T00:52:56.894Z,101027.13
2018-09-08T00:55:26.501Z,101020.62
2018-09-08T00:57:56.278Z,101027.37
2018-09-08T01:00:25.937Z,101025.95
2018-09-08T01:02:55.438Z,101023.27
2018-09-08T01:05:25.254Z,101022.50
2018-09-08T01:07:54.951Z,101015.30
2018-09-08T01:10:31.385Z,101020.52
2018-09-08T01:13:00.741Z,101023.93
2018-09-08T01:15:30.290Z,101019.85
2018-09-08T01:17:59.841Z,101026.14
2018-09-08T01:20:29.200Z,101017.20
2018-09-08T01:22:58.762Z,101019.73
2018-09-08T01:25:28.316Z,101018.22
2018-09-08T01:27:57.980Z,101023.20
2018-09-08T01:30:27.510Z,101023.09
2018-09-08T01:32:57.312Z,101029.63
2018-09-08T01:35:27.023Z,101025.13
2018-09-08T01:37:56.775Z,101019.90
2018-09-08T01:40:26.438Z,101018.93
2018-09-08T01:42:56.373Z,101014.17
2018-09-08T01:45:26.026Z,101005.83
2018-09-08T01:47:55.798Z,101006.28
2018-09-08T01:50:25.707Z,101001.52
2018-09-08T01:52:55.347Z,100997.52
2018-09-08T01:55:25.029Z,101002.31
2018-09-08T01:57:54.940Z,100994.06
2018-09-08T02:00:24.857Z,100997.52
2018-09-08T02:02:54.729Z,100991.20
2018-09-08T02:05:24.569Z,100993.88
2018-09-08T02:07:54.293Z,100993.02
2018-09-08T02:10:24.036Z,100992.05
2018-09-08T02:12:54.193Z,100995.41
2018-09-08T02:15:23.863Z,100993.44
2018-09-08T02:17:54.156Z,101008.73
2018-09-08T02:20:24.460Z,101013.01
2018-09-08T02:22:54.624Z,101013.37
2018-09-08T02:25:25.143Z,101012.59
2018-09-08T02:27:54.926Z,101021.36
2018-09-08T02:30:24.986Z,101011.03
2018-09-08T02:32:55.119Z,101018.31
2018-09-08T02:35:24.958Z,101020.61
2018-09-08T02:37:54.680Z,101017.34
2018-09-08T02:40:24.465Z,101018.57
2018-09-08T02:42:54.081Z,101022.66
2018-09-08T02:45:24.097Z,101017.34
2018-09-08T02:47:54.023Z,101019.69
2018-09-08T02:50:36.979Z,101015.59
2018-09-08T02:53:06.015Z,101024.66
2018-09-08T02:55:34.762Z,101015.96
2018-09-08T02:58:03.352Z,101012.61
2018-09-08T03:00:31.869Z,101018.45
2018-09-08T03:03:00.055Z,101016.14
2018-09-08T03:05:28.521Z,101018.59
2018-09-08T03:07:56.879Z,101020.70
2018-09-08T03:10:25.155Z,101017.14
2018-09-08T03:12:53.550Z,101019.30
2018-09-08T03:15:21.929Z,101013.69
2018-09-08T03:17:50.411Z,101017.78
2018-09-08T03:20:19.006Z,101010.69
2018-09-08T03:22:47.204Z,101006.60
2018-09-08T03:25:15.368Z,101011.88
2018-09-08T03:27:43.476Z,101018.08
2018-09-08T03:30:11.634Z,101025.81
2018-09-08T03:32:39.784Z,101022.84
2018-09-08T03:35:07.898Z,101028.41
2018-09-08T03:37:36.049Z,101033.77
2018-09-08T03:40:04.149Z,101032.69
2018-09-08T03:42:32.234Z,101041.38
2018-09-08T03:45:00.449Z,101042.71
2018-09-08T03:47:28.793Z,101052.27
2018-09-08T03:49:56.985Z,101047.50
2018-09-08T03:52:25.258Z,101043.12
2018-09-08T03:54:53.661Z,101050.06
2018-09-08T03:57:22.299Z,101056.81
2018-09-08T03:59:53.564Z,101053.70
2018-09-08T04:02:21.890Z,101050.23
2018-09-08T04:04:52.596Z,101050.37
2018-09-08T04:07:22.788Z,101042.83
2018-09-08T04:09:52.876Z,101046.95
2018-09-08T04:12:23.012Z,101035.40
2018-09-08T04:14:53.142Z,101030.64
2018-09-08T04:17:23.192Z,101027.08
2018-09-08T04:19:53.156Z,101035.11
2018-09-08T04:22:28.433Z,101034.00
2018-09-08T04:24:58.160Z,101037.91
2018-09-08T04:27:28.054Z,101040.59
2018-09-08T04:29:57.731Z,101040.33
2018-09-08T04:32:27.643Z,101045.20
2018-09-08T04:34:58.446Z,101042.89
2018-09-08T04:37:28.250Z,101049.09
2018-09-08T04:39:58.172Z,101052.80
2018-09-08T04:42:27.992Z,101052.03
2018-09-08T04:44:58.628Z,101059.69
2018-09-08T04:47:32.145Z,101064.55
2018-09-08T04:50:01.586Z,101065.63
2018-09-08T04:52:30.971Z,101070.02
2018-09-08T04:55:00.356Z,101066.42
2018-09-08T04:57:29.827Z,101064.89
2018-09-08T04:59:59.367Z,101059.25
2018-09-08T05:02:29.052Z,101072.81
2018-09-08T05:04:58.999Z,101068.31
2018-09-08T05:07:28.394Z,101060.41
2018-09-08T05:09:57.874Z,101059.06
2018-09-08T05:12:27.528Z,101072.14
2018-09-08T05:14:57.331Z,101070.80
2018-09-08T05:17:27.142Z,101071.58
2018-09-08T05:19:57.131Z,101076.55
2018-09-08T05:22:27.145Z,101089.34
2018-09-08T05:24:57.260Z,101082.84
2018-09-08T05:27:26.859Z,101075.11
2018-09-08T05:29:56.776Z,101069.72
2018-09-08T05:32:27.623Z,101079.64
2018-09-08T05:34:57.846Z,101073.55
2018-09-08T05:37:27.761Z,101082.88
2018-09-08T05:39:57.784Z,101080.95
2018-09-08T05:42:27.712Z,101080.83
2018-09-08T05:44:57.627Z,101082.47
2018-09-08T05:47:27.530Z,101070.23
2018-09-08T05:49:57.368Z,101067.83
2018-09-08T05:52:27.408Z,101070.50
2018-09-08T05:54:58.206Z,101069.64
2018-09-08T05:57:28.724Z,101078.52
2018-09-08T05:59:58.182Z,101085.84
2018-09-08T06:02:28.142Z,101086.40
2018-09-08T06:04:58.799Z,101087.99
2018-09-08T06:07:28.315Z,101095.13
2018-09-08T06:09:58.069Z,101097.85
2018-09-08T06:12:28.268Z,101102.92
2018-09-08T06:14:57.936Z,101089.91
2018-09-08T06:17:27.751Z,101084.58
2018-09-08T06:19:57.602Z,101095.72
2018-09-08T06:22:27.201Z,101107.91
2018-09-08T06:24:57.299Z,101111.93
2018-09-08T06:27:27.009Z,101104.81
2018-09-08T06:29:56.722Z,101109.22
2018-09-08T06:32:29.196Z,101111.72
2018-09-08T06:35:00.044Z,101108.13
2018-09-08T06:37:33.393Z,101115.49
2018-09-08T06:40:02.722Z,101129.77
2018-09-08T06:42:32.434Z,101133.09
2018-09-08T06:45:02.293Z,101136.14
2018-09-08T06:47:31.993Z,101144.69
2018-09-08T06:50:01.403Z,101137.50
2018-09-08T06:52:31.099Z,101133.22
2018-09-08T06:55:00.602Z,101139.28
2018-09-08T06:57:30.110Z,101135.13
2018-09-08T06:59:59.823Z,101137.25
2018-09-08T07:02:29.501Z,101138.48
2018-09-08T07:04:59.355Z,101138.31
2018-09-08T07:07:29.308Z,101134.97
2018-09-08T07:09:58.959Z,101120.62
2018-09-08T07:12:28.949Z,101127.12
2018-09-08T07:14:58.932Z,101121.13
2018-09-08T07:17:28.603Z,101122.48
2018-09-08T07:19:59.106Z,101122.73
2018-09-08T07:22:28.721Z,101127.75
2018-09-08T07:24:58.638Z,101128.36
2018-09-08T07:27:28.370Z,101131.22
2018-09-08T07:29:57.912Z,101139.25
2018-09-08T07:32:27.597Z,101129.83
2018-09-08T07:34:57.444Z,101133.38
2018-09-08T07:37:27.299Z,101140.95
2018-09-08T07:39:56.810Z,101144.30
2018-09-08T07:42:26.944Z,101154.20
2018-09-08T07:44:56.742Z,101153.71
2018-09-08T07:47:26.163Z,101154.82
2018-09-08T07:49:56.064Z,101169.97
2018-09-08T07:52:27.364Z,101172.17
2018-09-08T07:54:58.399Z,101173.16
2018-09-08T07:57:28.865Z,101164.95
2018-09-08T08:00:00.820Z,101181.70
2018-09-08T08:02:30.389Z,101176.36
2018-09-08T08:04:59.885Z,101182.45
2018-09-08T08:10:13.621Z,101187.30
2018-09-08T08:12:42.904Z,101173.33
2018-09-08T08:15:12.218Z,101183.83
2018-09-08T08:17:41.688Z,101171.79
2018-09-08T08:20:10.987Z,101166.31
2018-09-08T08:22:40.304Z,101171.07
2018-09-08T08:25:10.041Z,101165.87
2018-09-08T08:27:39.838Z,101176.15
2018-09-08T08:30:09.446Z,101180.30
2018-09-08T08:32:39.084Z,101180.95
2018-09-08T08:35:08.529Z,101182.63
2018-09-08T08:37:37.960Z,101190.72
2018-09-08T08:40:07.846Z,101201.72
2018-09-08T08:42:37.209Z,101187.03
2018-09-08T08:45:07.206Z,101201.31
2018-09-08T08:47:38.961Z,101204.56
2018-09-08T08:50:20.113Z,101204.00
2018-09-08T08:53:03.152Z,101211.05
2018-09-08T08:55:32.763Z,101217.20
2018-09-08T08:58:02.452Z,101211.89
2018-09-08T09:00:32.174Z,101211.81
2018-09-08T09:03:01.818Z,101222.59
2018-09-08T09:05:31.406Z,101212.22
2018-09-08T09:08:01.085Z,101227.61
2018-09-08T09:10:30.612Z,101223.92
2018-09-08T09:13:00.083Z,101230.73
2018-09-08T09:15:29.995Z,101220.70
2018-09-08T09:17:59.327Z,101217.16
2018-09-08T09:20:39.958Z,101215.45
2018-09-08T09:24:16.993Z,101221.48
2018-09-08T09:26:47.302Z,101219.86
2018-09-08T09:29:17.193Z,101231.11
2018-09-08T09:31:46.883Z,101228.70
2018-09-08T09:34:17.338Z,101228.94
2018-09-08T09:36:47.374Z,101228.44
2018-09-08T09:39:17.353Z,101233.01
2018-09-08T09:41:47.361Z,101233.53
2018-09-08T09:44:16.916Z,101234.19
2018-09-08T09:46:46.436Z,101233.85
2018-09-08T09:49:15.873Z,101241.56
2018-09-08T09:51:45.672Z,101239.72
2018-09-08T09:54:15.553Z,101238.70
2018-09-08T09:56:45.128Z,101245.16
2018-09-08T09:59:15.001Z,101229.54
2018-09-08T10:02:50.966Z,101231.95
2018-09-08T10:05:24.104Z,101244.32
2018-09-08T10:07:56.263Z,101242.70
2018-09-08T10:10:28.353Z,101244.77
2018-09-08T10:13:03.100Z,101239.38
2018-09-08T10:15:33.205Z,101242.70
2018-09-08T10:18:03.137Z,101236.69
2018-09-08T10:23:13.471Z,101230.30
2018-09-08T10:25:42.894Z,101235.47
2018-09-08T10:28:13.751Z,101226.28
2018-09-08T10:30:43.367Z,101238.70
2018-09-08T10:33:13.002Z,101231.67
2018-09-08T10:35:43.067Z,101237.20
2018-09-08T10:38:12.912Z,101242.58
2018-09-08T10:40:42.742Z,101239.33
2018-09-08T10:43:12.563Z,101233.58
2018-09-08T10:45:42.167Z,101236.27
2018-09-08T10:48:11.648Z,101238.20
2018-09-08T10:50:41.115Z,101245.05
2018-09-08T10:53:10.715Z,101249.74
2018-09-08T10:55:40.538Z,101253.72
2018-09-08T10:58:09.869Z,101254.08
2018-09-08T11:00:39.377Z,101261.21
2018-09-08T11:03:08.701Z,101270.14
2018-09-08T11:05:38.192Z,101256.63
2018-09-08T11:08:07.801Z,101262.39
2018-09-08T11:10:37.123Z,101258.58
2018-09-08T11:13:07.659Z,101254.00
2018-09-08T11:15:37.062Z,101262.00
2018-09-08T11:18:06.516Z,101257.59
2018-09-08T11:23:14.724Z,101258.48
2018-09-08T11:25:44.844Z,101268.73
2018-09-08T11:28:14.170Z,101265.41
2018-09-08T11:30:43.655Z,101282.25
2018-09-08T11:33:13.003Z,101284.39
2018-09-08T11:35:42.458Z,101283.45
2018-09-08T11:38:12.151Z,101289.16
2018-09-08T11:40:41.752Z,101286.03
2018-09-08T11:43:11.056Z,101277.63
2018-09-08T11:45:40.595Z,101286.66
2018-09-08T11:48:10.186Z,101289.61
2018-09-08T11:50:46.711Z,101279.76
2018-09-08T11:53:16.855Z,101285.13
2018-09-08T11:55:46.415Z,101276.91
2018-09-08T11:58:16.022Z,101282.99
2018-09-08T12:00:45.415Z,101281.56
2018-09-08T12:03:14.993Z,101296.81
2018-09-08T12:05:44.514Z,101297.04
2018-09-08T12:08:13.900Z,101291.25
2018-09-08T12:10:43.591Z,101298.92
2018-09-08T12:13:13.529Z,101298.95
2018-09-08T12:15:42.974Z,101304.91
2018-09-08T12:18:12.534Z,101301.30
2018-09-08T12:20:41.932Z,101296.88
2018-09-08T12:23:11.541Z,101306.36
2018-09-08T12:25:41.011Z,101300.30
2018-09-08T12:28:10.378Z,101313.67
2018-09-08T12:31:13.777Z,101310.92
2018-09-08T12:33:43.138Z,101320.88
2018-09-08T12:36:12.465Z,101332.62
2018-09-08T12:38:41.993Z,101336.52
2018-09-08T12:41:11.361Z,101328.63
2018-09-08T12:43:40.697Z,101332.70
2018-09-08T12:46:10.746Z,101336.84
2018-09-08T12:48:40.182Z,101331.35
2018-09-08T12:51:10.975Z,101332.34
2018-09-08T12:53:40.767Z,101335.23
2018-09-08T12:56:10.274Z,101338.20
2018-09-08T12:58:39.891Z,101339.34
2018-09-08T13:01:09.475Z,101337.01
2018-09-08T13:03:38.794Z,101342.06
2018-09-08T13:06:08.334Z,101335.85
2018-09-08T13:08:37.889Z,101336.95
2018-09-08T13:11:08.209Z,101339.38
2018-09-08T13:13:37.761Z,101343.67
2018-09-08T13:16:07.267Z,101335.68
2018-09-08T13:18:36.649Z,101342.78
2018-09-08T13:21:06.208Z,101337.22
2018-09-08T13:23:35.740Z,101341.59
2018-09-08T13:26:05.145Z,101336.95
2018-09-08T13:28:34.539Z,101345.80
2018-09-08T13:31:04.777Z,101343.70
2018-09-08T13:33:34.354Z,101340.88
2018-09-08T13:36:03.818Z,101343.64
2018-09-08T13:41:25.182Z,101353.55
2018-09-08T13:43:55.134Z,101357.04
2018-09-08T13:46:24.705Z,101368.21
2018-09-08T13:48:54.629Z,101364.83
2018-09-08T13:51:24.672Z,101370.88
2018-09-08T13:53:54.910Z,101366.03
2018-09-08T13:56:24.812Z,101369.44
2018-09-08T13:58:54.849Z,101362.54
2018-09-08T14:01:25.034Z,101362.29
2018-09-08T14:03:56.295Z,101360.80
2018-09-08T14:06:26.167Z,101366.45
2018-09-08T14:08:57.533Z,101361.20
2018-09-08T14:11:27.475Z,101360.67
2018-09-08T14:13:57.831Z,101366.45
2018-09-08T14:16:28.551Z,101365.52
2018-09-08T14:18:59.070Z,101366.52
2018-09-08T14:21:28.905Z,101359.78
2018-09-08T14:23:59.043Z,101366.78
2018-09-08T14:26:32.226Z,101366.80
2018-09-08T14:29:01.723Z,101367.01
2018-09-08T14:31:31.237Z,101366.47
2018-09-08T14:34:01.511Z,101366.59
2018-09-08T14:36:31.574Z,101374.42
2018-09-08T14:39:01.685Z,101374.88
2018-09-08T14:41:32.184Z,101381.68
2018-09-08T14:44:02.193Z,101378.16
2018-09-08T14:46:32.288Z,101375.95
2018-09-08T14:51:38.890Z,101391.05
2018-09-08T14:54:09.153Z,101376.78
2018-09-08T14:56:38.588Z,101388.13
2018-09-08T14:59:08.283Z,101388.41
2018-09-08T15:01:37.752Z,101383.26
2018-09-08T15:04:07.629Z,101387.42
2018-09-08T15:06:38.133Z,101392.23
2018-09-08T15:09:07.781Z,101387.47
2018-09-08T15:11:38.244Z,101385.71
2018-09-08T15:14:07.702Z,101389.63
2018-09-08T15:16:39.314Z,101386.48
2018-09-08T15:19:08.581Z,101388.84
2018-09-08T15:21:38.091Z,101397.19
2018-09-08T15:24:07.505Z,101391.91
2018-09-08T15:26:38.154Z,101387.67
2018-09-08T15:29:08.936Z,101398.16
2018-09-08T15:31:38.438Z,101395.72
2018-09-08T15:34:07.790Z,101393.27
2018-09-08T15:36:37.242Z,101404.52
2018-09-08T15:39:11.911Z,101398.32
2018-09-08T15:41:41.313Z,101402.24
2018-09-08T15:44:10.749Z,101402.02
2018-09-08T15:46:40.210Z,101405.02
2018-09-08T15:49:09.659Z,101402.38
2018-09-08T15:51:39.024Z,101402.66
2018-09-08T15:54:09.023Z,101403.88
2018-09-08T15:56:38.925Z,101402.20
2018-09-08T15:59:09.909Z,101399.56
2018-09-08T16:01:39.766Z,101406.47
2018-09-08T16:04:09.426Z,101407.56
2018-09-08T16:06:38.838Z,101412.22
2018-09-08T16:09:08.550Z,101407.88
2018-09-08T16:11:37.890Z,101411.17
2018-09-08T16:14:07.307Z,101412.73
2018-09-08T16:16:36.806Z,101413.93
2018-09-08T16:19:06.362Z,101414.44
2018-09-08T16:24:14.315Z,101422.76
2018-09-08T16:26:43.707Z,101418.92
2018-09-08T16:29:13.261Z,101422.31
2018-09-08T16:31:42.678Z,101424.63
2018-09-08T16:34:12.167Z,101423.64
2018-09-08T16:36:41.612Z,101424.50
2018-09-08T16:39:12.243Z,101419.16
2018-09-08T16:41:41.757Z,101423.16
2018-09-08T16:44:11.329Z,101429.28
2018-09-08T16:46:40.629Z,101425.42
2018-09-08T16:49:10.189Z,101421.66
2018-09-08T16:51:54.275Z,101429.38
2018-09-08T16:54:24.627Z,101433.09
2018-09-08T16:56:55.590Z,101439.25
2018-09-08T16:59:26.970Z,101434.14
2018-09-08T17:04:36.700Z,101436.50
2018-09-08T17:07:06.630Z,101440.13
2018-09-08T17:09:38.702Z,101442.12
2018-09-08T17:12:08.678Z,101440.98
2018-09-08T17:14:38.168Z,101446.90
2018-09-08T17:19:51.285Z,101443.58
2018-09-08T17:22:23.446Z,101444.84
2018-09-08T17:24:54.147Z,101445.80
2018-09-08T17:27:29.126Z,101442.68
2018-09-08T17:29:59.007Z,101445.28
2018-09-08T17:32:28.784Z,101447.78
2018-09-08T17:34:59.050Z,101445.37
2018-09-08T17:37:28.752Z,101445.16
2018-09-08T17:39:59.401Z,101449.62
2018-09-08T17:42:29.425Z,101443.79
2018-09-08T17:44:59.152Z,101443.79
2018-09-08T17:47:29.781Z,101446.11
2018-09-08T17:49:59.907Z,101460.87
2018-09-08T17:52:32.743Z,101464.86
2018-09-08T17:55:02.532Z,101470.30
2018-09-08T17:57:32.304Z,101467.35
2018-09-08T18:00:02.157Z,101472.82
2018-09-08T18:02:32.628Z,101472.54
2018-09-08T18:05:02.657Z,101477.27
2018-09-08T18:07:32.297Z,101481.31
2018-09-08T18:10:02.051Z,101484.62
2018-09-08T18:12:32.181Z,101481.95
2018-09-08T18:15:02.286Z,101483.30
2018-09-08T18:17:31.931Z,101489.98
2018-09-08T18:20:01.563Z,101492.56
2018-09-08T18:22:31.538Z,101494.80
2018-09-08T18:25:01.464Z,101499.73
2018-09-08T18:27:30.955Z,101495.67
2018-09-08T18:30:00.469Z,101492.27
2018-09-08T18:32:30.081Z,101496.86
2018-09-08T18:34:59.497Z,101497.58
2018-09-08T18:37:29.312Z,101497.96
2018-09-08T18:39:59.538Z,101500.30
2018-09-08T18:42:29.055Z,101505.56
2018-09-08T18:44:58.521Z,101501.16
2018-09-08T18:47:28.467Z,101503.63
2018-09-08T18:49:58.234Z,101512.61
2018-09-08T18:52:28.014Z,101509.55
2018-09-08T18:54:57.576Z,101511.39
2018-09-08T18:57:27.220Z,101507.62
2018-09-08T18:59:57.254Z,101507.62
2018-09-08T19:02:27.304Z,101502.08
2018-09-08T19:04:57.018Z,101503.57
2018-09-08T19:07:27.360Z,101506.77
2018-09-08T19:10:02.735Z,101503.70
2018-09-08T19:12:32.948Z,101494.91
2018-09-08T19:15:08.125Z,101502.38
2018-09-08T19:17:37.673Z,101499.09
2018-09-08T19:20:17.326Z,101507.69
2018-09-08T19:23:02.078Z,101498.88
2018-09-08T19:25:38.678Z,101506.34
2018-09-08T19:28:25.708Z,101504.05
2018-09-08T19:31:13.570Z,101501.70
2018-09-08T19:33:44.803Z,101497.54
2018-09-08T19:36:14.551Z,101493.98
2018-09-08T19:38:44.051Z,101499.38
2018-09-08T19:41:15.286Z,101498.39
2018-09-08T19:43:44.617Z,101498.75
2018-09-08T19:46:19.340Z,101495.83
2018-09-08T19:48:48.967Z,101496.59
2018-09-08T19:51:18.666Z,101500.16
2018-09-08T19:53:53.468Z,101495.03
2018-09-08T19:56:27.818Z,101497.02
2018-09-08T19:58:59.223Z,101494.59
2018-09-08T20:01:29.499Z,101494.31
2018-09-08T20:03:58.951Z,101498.24
2018-09-08T20:06:28.480Z,101495.55
2018-09-08T20:08:58.187Z,101497.15
2018-09-08T20:11:27.670Z,101502.78
2018-09-08T20:13:57.347Z,101498.24
2018-09-08T20:16:26.821Z,101500.70
2018-09-08T20:18:56.513Z,101503.55
2018-09-08T20:21:26.406Z,101491.77
2018-09-08T20:23:56.155Z,101492.84
2018-09-08T20:26:25.727Z,101491.89
2018-09-08T20:28:59.926Z,101486.78
2018-09-08T20:31:29.957Z,101490.87
2018-09-08T20:34:11.164Z,101485.58
2018-09-08T20:36:45.491Z,101489.02
2018-09-08T20:39:15.511Z,101490.38
2018-09-08T20:41:45.428Z,101483.72
2018-09-08T20:44:18.333Z,101490.61
2018-09-08T20:46:50.372Z,101487.55
2018-09-08T20:49:21.592Z,101490.02
2018-09-08T20:51:52.135Z,101493.30
2018-09-08T20:54:23.581Z,101489.16
2018-09-08T20:56:53.481Z,101491.11
2018-09-08T20:59:23.085Z,101490.91
2018-09-08T21:01:53.367Z,101492.00
2018-09-08T21:04:23.473Z,101490.78
2018-09-08T21:06:53.421Z,101495.42
2018-09-08T21:09:23.206Z,101493.67
2018-09-08T21:11:52.669Z,101498.34
2018-09-08T21:14:24.167Z,101506.30
2018-09-08T21:16:54.026Z,101504.72
2018-09-08T21:19:25.448Z,101513.08
2018-09-08T21:21:59.275Z,101506.95
2018-09-08T21:24:34.740Z,101513.34
2018-09-08T21:27:04.138Z,101513.07
2018-09-08T21:29:33.678Z,101510.02
2018-09-08T21:32:03.354Z,101507.77
2018-09-08T21:34:32.695Z,101507.16
2018-09-08T21:37:02.039Z,101502.66
2018-09-08T21:39:32.717Z,101504.63
2018-09-08T21:42:02.266Z,101510.02
2018-09-08T21:44:31.633Z,101501.20
2018-09-08T21:47:05.862Z,101500.72
2018-09-08T21:49:32.742Z,101505.02
2018-09-08T21:52:02.043Z,101507.22
2018-09-08T21:54:31.457Z,101503.67
2018-09-08T21:57:01.284Z,101503.18
2018-09-08T21:59:42.197Z,101504.79
2018-09-08T22:02:14.425Z,101505.41
2018-09-08T22:04:46.727Z,101496.20
2018-09-08T22:07:16.068Z,101491.08
2018-09-08T22:09:45.882Z,101495.15
2018-09-08T22:12:15.197Z,101494.30
2018-09-08T22:14:45.415Z,101492.59
2018-09-08T22:17:15.003Z,101492.09
2018-09-08T22:19:45.210Z,101493.17
2018-09-08T22:22:14.562Z,101488.54
2018-09-08T22:24:44.161Z,101487.66
2018-09-08T22:27:13.488Z,101489.76
2018-09-08T22:29:42.977Z,101487.30
2018-09-08T22:32:12.352Z,101494.30
2018-09-08T22:34:41.799Z,101491.33
2018-09-08T22:37:11.077Z,101491.10
2018-09-08T22:39:41.377Z,101489.03
2018-09-08T22:42:10.602Z,101489.39
2018-09-08T22:44:40.083Z,101487.31
2018-09-08T22:47:09.387Z,101490.03
2018-09-08T22:49:38.760Z,101485.00
2018-09-08T22:52:08.084Z,101494.06
2018-09-08T22:54:37.607Z,101494.06
2018-09-08T22:57:07.021Z,101491.25
2018-09-08T22:59:36.409Z,101491.87
2018-09-08T23:02:05.797Z,101496.77
2018-09-08T23:04:35.124Z,101498.11
2018-09-08T23:07:04.413Z,101501.79
2018-09-08T23:09:34.223Z,101500.44
2018-09-08T23:12:03.516Z,101500.31
2018-09-08T23:14:32.832Z,101500.56
2018-09-08T23:17:02.200Z,101504.21
2018-09-08T23:19:31.626Z,101502.62
2018-09-08T23:22:01.183Z,101498.84
2018-09-08T23:24:30.482Z,101504.84
2018-09-08T23:27:00.493Z,101502.02
2018-09-08T23:29:31.879Z,101501.29
2018-09-08T23:32:02.727Z,101503.00
2018-09-08T23:34:34.605Z,101503.12
2018-09-08T23:37:04.298Z,101512.42
2018-09-08T23:39:33.618Z,101512.31
2018-09-08T23:42:04.414Z,101501.31
2018-09-08T23:44:33.768Z,101511.45
2018-09-08T23:47:03.140Z,101513.16
2018-09-08T23:49:34.020Z,101510.34
2018-09-08T23:52:03.646Z,101506.56
2018-09-08T23:54:33.077Z,101507.42
2018-09-08T23:57:02.848Z,101502.89
2018-09-08T23:59:32.137Z,101509.73
